sensor_id;sensor_type;location;lat;lon;timestamp;temperature;humidity
70068;DHT22;57425;51.616;6.680;2023-05-18T00:02:01;14.40;55.10
70068;DHT22;57425;51.616;6.680;2023-05-18T00:04:31;14.40;55.20
70068;DHT22;57425;51.616;6.680;2023-05-18T00:06:58;14.40;55.20
70068;DHT22;57425;51.616;6.680;2023-05-18T00:09:32;14.40;55.30
70068;DHT22;57425;51.616;6.680;2023-05-18T00:11:58;14.30;55.20
70068;DHT22;57425;51.616;6.680;2023-05-18T00:14:25;14.50;57.70
70068;DHT22;57425;51.616;6.680;2023-05-18T00:16:51;14.30;56.40
70068;DHT22;57425;51.616;6.680;2023-05-18T00:19:21;14.30;55.30
70068;DHT22;57425;51.616;6.680;2023-05-18T00:24:15;14.20;54.70
70068;DHT22;57425;51.616;6.680;2023-05-18T00:26:44;14.20;55.20
70068;DHT22;57425;51.616;6.680;2023-05-18T00:29:10;14.20;55.20
70068;DHT22;57425;51.616;6.680;2023-05-18T00:31:37;14.20;55.10
70068;DHT22;57425;51.616;6.680;2023-05-18T00:34:13;14.20;55.20
70068;DHT22;57425;51.616;6.680;2023-05-18T00:36:39;14.20;55.20
70068;DHT22;57425;51.616;6.680;2023-05-18T00:39:06;14.20;55.20
70068;DHT22;57425;51.616;6.680;2023-05-18T00:43:59;14.20;77.20
70068;DHT22;57425;51.616;6.680;2023-05-18T00:46:26;14.20;77.40
70068;DHT22;57425;51.616;6.680;2023-05-18T00:48:53;14.10;55.50
70068;DHT22;57425;51.616;6.680;2023-05-18T00:51:22;14.10;55.60
70068;DHT22;57425;51.616;6.680;2023-05-18T00:56:15;14.00;55.20
70068;DHT22;57425;51.616;6.680;2023-05-18T00:58:42;14.00;55.80
70068;DHT22;57425;51.616;6.680;2023-05-18T01:01:07;14.00;55.70
70068;DHT22;57425;51.616;6.680;2023-05-18T01:03:36;13.90;55.60
70068;DHT22;57425;51.616;6.680;2023-05-18T01:06:04;13.90;55.60
70068;DHT22;57425;51.616;6.680;2023-05-18T01:08:31;13.90;55.60
70068;DHT22;57425;51.616;6.680;2023-05-18T01:11:06;13.80;55.60
70068;DHT22;57425;51.616;6.680;2023-05-18T01:13:47;13.80;55.60
70068;DHT22;57425;51.616;6.680;2023-05-18T01:19:15;13.80;55.30
70068;DHT22;57425;51.616;6.680;2023-05-18T01:22:05;13.80;55.80
70068;DHT22;57425;51.616;6.680;2023-05-18T01:24:42;13.80;55.90
70068;DHT22;57425;51.616;6.680;2023-05-18T01:27:10;13.70;56.10
70068;DHT22;57425;51.616;6.680;2023-05-18T01:29:40;13.70;56.00
70068;DHT22;57425;51.616;6.680;2023-05-18T01:32:07;13.70;55.90
70068;DHT22;57425;51.616;6.680;2023-05-18T01:34:32;13.70;56.00
70068;DHT22;57425;51.616;6.680;2023-05-18T01:36:58;13.70;55.90
70068;DHT22;57425;51.616;6.680;2023-05-18T01:39:23;13.60;55.80
70068;DHT22;57425;51.616;6.680;2023-05-18T01:41:58;13.60;55.80
70068;DHT22;57425;51.616;6.680;2023-05-18T01:44:50;13.60;55.70
70068;DHT22;57425;51.616;6.680;2023-05-18T01:47:18;13.60;55.50
70068;DHT22;57425;51.616;6.680;2023-05-18T01:50:12;13.60;55.80
70068;DHT22;57425;51.616;6.680;2023-05-18T01:53:13;13.60;55.50
70068;DHT22;57425;51.616;6.680;2023-05-18T01:55:32;13.60;55.90
70068;DHT22;57425;51.616;6.680;2023-05-18T01:57:59;13.50;55.90
70068;DHT22;57425;51.616;6.680;2023-05-18T02:00:26;13.50;55.90
70068;DHT22;57425;51.616;6.680;2023-05-18T02:02:52;13.50;55.90
70068;DHT22;57425;51.616;6.680;2023-05-18T02:05:18;13.50;55.90
70068;DHT22;57425;51.616;6.680;2023-05-18T02:07:43;13.50;55.90
70068;DHT22;57425;51.616;6.680;2023-05-18T02:10:11;13.50;56.00
70068;DHT22;57425;51.616;6.680;2023-05-18T02:12:37;13.50;55.90
70068;DHT22;57425;51.616;6.680;2023-05-18T02:15:03;13.40;56.40
70068;DHT22;57425;51.616;6.680;2023-05-18T02:17:32;13.50;56.00
70068;DHT22;57425;51.616;6.680;2023-05-18T02:19:57;13.40;55.90
70068;DHT22;57425;51.616;6.680;2023-05-18T02:22:23;13.40;56.00
70068;DHT22;57425;51.616;6.680;2023-05-18T02:24:48;13.40;56.00
70068;DHT22;57425;51.616;6.680;2023-05-18T02:27:15;13.40;56.00
70068;DHT22;57425;51.616;6.680;2023-05-18T02:29:41;13.40;56.10
70068;DHT22;57425;51.616;6.680;2023-05-18T02:32:07;13.30;56.00
70068;DHT22;57425;51.616;6.680;2023-05-18T02:34:33;13.30;56.00
70068;DHT22;57425;51.616;6.680;2023-05-18T02:37:00;13.30;56.10
70068;DHT22;57425;51.616;6.680;2023-05-18T02:39:29;13.30;56.20
70068;DHT22;57425;51.616;6.680;2023-05-18T02:41:54;13.20;56.20
70068;DHT22;57425;51.616;6.680;2023-05-18T02:44:20;13.20;56.70
70068;DHT22;57425;51.616;6.680;2023-05-18T02:46:46;13.20;56.30
70068;DHT22;57425;51.616;6.680;2023-05-18T02:49:11;13.20;56.30
70068;DHT22;57425;51.616;6.680;2023-05-18T02:51:37;13.20;56.30
70068;DHT22;57425;51.616;6.680;2023-05-18T02:54:03;13.10;56.30
70068;DHT22;57425;51.616;6.680;2023-05-18T02:56:28;13.10;56.40
70068;DHT22;57425;51.616;6.680;2023-05-18T02:58:54;13.10;56.40
70068;DHT22;57425;51.616;6.680;2023-05-18T03:01:24;13.10;56.40
70068;DHT22;57425;51.616;6.680;2023-05-18T03:03:52;13.10;56.40
70068;DHT22;57425;51.616;6.680;2023-05-18T03:06:18;13.10;56.50
70068;DHT22;57425;51.616;6.680;2023-05-18T03:08:51;13.00;56.50
70068;DHT22;57425;51.616;6.680;2023-05-18T03:11:21;13.00;56.60
70068;DHT22;57425;51.616;6.680;2023-05-18T03:13:47;13.00;56.50
70068;DHT22;57425;51.616;6.680;2023-05-18T03:16:13;13.00;56.60
70068;DHT22;57425;51.616;6.680;2023-05-18T03:18:39;13.00;56.70
70068;DHT22;57425;51.616;6.680;2023-05-18T03:21:05;12.90;56.60
70068;DHT22;57425;51.616;6.680;2023-05-18T03:23:32;12.90;57.10
70068;DHT22;57425;51.616;6.680;2023-05-18T03:25:58;12.90;56.60
70068;DHT22;57425;51.616;6.680;2023-05-18T03:28:30;12.80;56.60
70068;DHT22;57425;51.616;6.680;2023-05-18T03:30:55;12.80;56.60
70068;DHT22;57425;51.616;6.680;2023-05-18T03:33:21;12.80;56.70
70068;DHT22;57425;51.616;6.680;2023-05-18T03:35:47;12.80;56.70
70068;DHT22;57425;51.616;6.680;2023-05-18T03:38:13;12.80;56.60
70068;DHT22;57425;51.616;6.680;2023-05-18T03:40:39;12.80;56.70
70068;DHT22;57425;51.616;6.680;2023-05-18T03:43:05;12.70;56.70
70068;DHT22;57425;51.616;6.680;2023-05-18T03:45:30;12.70;56.70
70068;DHT22;57425;51.616;6.680;2023-05-18T03:47:56;12.70;57.30
70068;DHT22;57425;51.616;6.680;2023-05-18T03:50:22;12.70;56.70
70068;DHT22;57425;51.616;6.680;2023-05-18T03:52:47;12.70;56.90
70068;DHT22;57425;51.616;6.680;2023-05-18T03:55:13;12.60;57.00
70068;DHT22;57425;51.616;6.680;2023-05-18T03:57:39;12.60;57.00
70068;DHT22;57425;51.616;6.680;2023-05-18T04:00:06;12.60;56.90
70068;DHT22;57425;51.616;6.680;2023-05-18T04:02:36;12.60;56.90
70068;DHT22;57425;51.616;6.680;2023-05-18T04:05:02;12.60;57.00
70068;DHT22;57425;51.616;6.680;2023-05-18T04:07:28;12.60;56.90
70068;DHT22;57425;51.616;6.680;2023-05-18T04:09:55;12.50;57.00
70068;DHT22;57425;51.616;6.680;2023-05-18T04:12:21;12.50;57.00
70068;DHT22;57425;51.616;6.680;2023-05-18T04:14:46;12.50;57.10
70068;DHT22;57425;51.616;6.680;2023-05-18T04:17:19;12.50;57.20
70068;DHT22;57425;51.616;6.680;2023-05-18T04:19:48;12.50;57.10
70068;DHT22;57425;51.616;6.680;2023-05-18T04:22:15;12.50;57.20
70068;DHT22;57425;51.616;6.680;2023-05-18T04:24:41;12.50;57.30
70068;DHT22;57425;51.616;6.680;2023-05-18T04:27:07;12.50;57.20
70068;DHT22;57425;51.616;6.680;2023-05-18T04:29:34;12.50;57.30
70068;DHT22;57425;51.616;6.680;2023-05-18T04:32:04;12.50;57.20
70068;DHT22;57425;51.616;6.680;2023-05-18T04:34:32;12.40;57.30
70068;DHT22;57425;51.616;6.680;2023-05-18T04:37:00;12.40;57.40
70068;DHT22;57425;51.616;6.680;2023-05-18T04:39:27;12.40;57.40
70068;DHT22;57425;51.616;6.680;2023-05-18T04:41:53;12.40;57.50
70068;DHT22;57425;51.616;6.680;2023-05-18T04:44:26;12.40;57.40
70068;DHT22;57425;51.616;6.680;2023-05-18T04:46:53;12.40;57.40
70068;DHT22;57425;51.616;6.680;2023-05-18T04:49:20;12.40;57.50
70068;DHT22;57425;51.616;6.680;2023-05-18T04:51:51;12.30;57.50
70068;DHT22;57425;51.616;6.680;2023-05-18T04:54:24;12.30;57.40
70068;DHT22;57425;51.616;6.680;2023-05-18T04:56:51;12.30;57.60
70068;DHT22;57425;51.616;6.680;2023-05-18T04:59:17;12.30;58.10
70068;DHT22;57425;51.616;6.680;2023-05-18T05:01:43;12.30;57.60
70068;DHT22;57425;51.616;6.680;2023-05-18T05:04:09;12.30;57.50
70068;DHT22;57425;51.616;6.680;2023-05-18T05:06:35;12.30;57.50
70068;DHT22;57425;51.616;6.680;2023-05-18T05:09:01;12.30;57.60
70068;DHT22;57425;51.616;6.680;2023-05-18T05:11:26;12.30;57.50
70068;DHT22;57425;51.616;6.680;2023-05-18T05:13:52;12.30;57.60
70068;DHT22;57425;51.616;6.680;2023-05-18T05:16:17;12.30;58.20
70068;DHT22;57425;51.616;6.680;2023-05-18T05:18:43;12.20;57.60
70068;DHT22;57425;51.616;6.680;2023-05-18T05:21:09;12.20;57.60
70068;DHT22;57425;51.616;6.680;2023-05-18T05:23:34;12.20;57.60
70068;DHT22;57425;51.616;6.680;2023-05-18T05:26:00;12.20;57.60
70068;DHT22;57425;51.616;6.680;2023-05-18T05:28:26;12.20;57.70
70068;DHT22;57425;51.616;6.680;2023-05-18T05:30:51;12.30;57.80
70068;DHT22;57425;51.616;6.680;2023-05-18T05:33:18;12.20;57.70
70068;DHT22;57425;51.616;6.680;2023-05-18T05:35:44;12.20;57.70
70068;DHT22;57425;51.616;6.680;2023-05-18T05:38:09;12.20;57.60
70068;DHT22;57425;51.616;6.680;2023-05-18T05:40:35;12.20;57.60
70068;DHT22;57425;51.616;6.680;2023-05-18T05:43:01;12.20;57.80
70068;DHT22;57425;51.616;6.680;2023-05-18T05:45:26;12.20;57.80
70068;DHT22;57425;51.616;6.680;2023-05-18T05:47:55;12.20;57.70
70068;DHT22;57425;51.616;6.680;2023-05-18T05:50:20;12.20;57.70
70068;DHT22;57425;51.616;6.680;2023-05-18T05:52:46;12.20;57.80
70068;DHT22;57425;51.616;6.680;2023-05-18T05:55:12;12.20;57.80
70068;DHT22;57425;51.616;6.680;2023-05-18T05:57:37;12.20;57.80
70068;DHT22;57425;51.616;6.680;2023-05-18T06:00:16;12.30;57.80
70068;DHT22;57425;51.616;6.680;2023-05-18T06:02:41;12.20;57.80
70068;DHT22;57425;51.616;6.680;2023-05-18T06:05:07;12.20;58.30
70068;DHT22;57425;51.616;6.680;2023-05-18T06:07:34;12.20;57.80
70068;DHT22;57425;51.616;6.680;2023-05-18T06:10:00;12.20;57.90
70068;DHT22;57425;51.616;6.680;2023-05-18T06:12:26;12.20;57.80
70068;DHT22;57425;51.616;6.680;2023-05-18T06:14:52;12.20;57.80
70068;DHT22;57425;51.616;6.680;2023-05-18T06:17:25;12.30;58.00
70068;DHT22;57425;51.616;6.680;2023-05-18T06:19:50;12.20;58.00
70068;DHT22;57425;51.616;6.680;2023-05-18T06:22:16;12.40;58.10
70068;DHT22;57425;51.616;6.680;2023-05-18T06:24:42;12.20;58.00
70068;DHT22;57425;51.616;6.680;2023-05-18T06:27:07;12.30;58.10
70068;DHT22;57425;51.616;6.680;2023-05-18T06:29:33;12.20;58.10
70068;DHT22;57425;51.616;6.680;2023-05-18T06:31:59;12.40;58.20
70068;DHT22;57425;51.616;6.680;2023-05-18T06:34:25;12.20;58.10
70068;DHT22;57425;51.616;6.680;2023-05-18T06:36:50;12.20;58.00
70068;DHT22;57425;51.616;6.680;2023-05-18T06:39:16;12.20;58.00
70068;DHT22;57425;51.616;6.680;2023-05-18T06:41:42;12.20;58.00
70068;DHT22;57425;51.616;6.680;2023-05-18T06:44:10;12.20;58.00
70068;DHT22;57425;51.616;6.680;2023-05-18T06:46:36;12.20;57.90
70068;DHT22;57425;51.616;6.680;2023-05-18T06:49:02;12.20;57.90
70068;DHT22;57425;51.616;6.680;2023-05-18T06:51:27;12.20;57.70
70068;DHT22;57425;51.616;6.680;2023-05-18T06:53:53;12.30;57.90
70068;DHT22;57425;51.616;6.680;2023-05-18T06:56:19;12.20;57.90
70068;DHT22;57425;51.616;6.680;2023-05-18T06:58:46;12.30;57.90
70068;DHT22;57425;51.616;6.680;2023-05-18T07:01:11;12.20;57.90
70068;DHT22;57425;51.616;6.680;2023-05-18T07:03:38;12.30;57.80
70068;DHT22;57425;51.616;6.680;2023-05-18T07:06:04;12.30;57.80
70068;DHT22;57425;51.616;6.680;2023-05-18T07:08:30;12.30;57.90
70068;DHT22;57425;51.616;6.680;2023-05-18T07:10:56;12.30;57.80
70068;DHT22;57425;51.616;6.680;2023-05-18T07:13:23;12.30;57.90
70068;DHT22;57425;51.616;6.680;2023-05-18T07:15:49;12.30;57.90
70068;DHT22;57425;51.616;6.680;2023-05-18T07:18:15;12.30;58.00
70068;DHT22;57425;51.616;6.680;2023-05-18T07:20:40;12.30;57.90
70068;DHT22;57425;51.616;6.680;2023-05-18T07:23:06;12.30;58.00
70068;DHT22;57425;51.616;6.680;2023-05-18T07:25:32;12.30;58.10
70068;DHT22;57425;51.616;6.680;2023-05-18T07:27:57;12.30;58.00
70068;DHT22;57425;51.616;6.680;2023-05-18T07:30:26;12.40;57.90
70068;DHT22;57425;51.616;6.680;2023-05-18T07:32:52;12.40;58.00
70068;DHT22;57425;51.616;6.680;2023-05-18T07:35:18;12.40;58.10
70068;DHT22;57425;51.616;6.680;2023-05-18T07:37:44;12.40;58.10
70068;DHT22;57425;51.616;6.680;2023-05-18T07:40:10;12.40;58.10
70068;DHT22;57425;51.616;6.680;2023-05-18T07:42:38;12.50;58.00
70068;DHT22;57425;51.616;6.680;2023-05-18T07:45:05;12.40;58.20
70068;DHT22;57425;51.616;6.680;2023-05-18T07:47:31;12.50;58.30
70068;DHT22;57425;51.616;6.680;2023-05-18T07:49:57;12.50;58.30
70068;DHT22;57425;51.616;6.680;2023-05-18T07:52:23;12.50;58.80
70068;DHT22;57425;51.616;6.680;2023-05-18T07:54:48;12.50;58.20
70068;DHT22;57425;51.616;6.680;2023-05-18T07:57:14;12.50;58.00
70068;DHT22;57425;51.616;6.680;2023-05-18T07:59:39;12.50;58.00
70068;DHT22;57425;51.616;6.680;2023-05-18T08:02:05;12.50;57.90
70068;DHT22;57425;51.616;6.680;2023-05-18T08:04:32;12.50;58.10
70068;DHT22;57425;51.616;6.680;2023-05-18T08:06:58;12.60;58.20
70068;DHT22;57425;51.616;6.680;2023-05-18T08:09:27;12.60;58.20
70068;DHT22;57425;51.616;6.680;2023-05-18T08:11:54;12.70;58.00
70068;DHT22;57425;51.616;6.680;2023-05-18T08:14:21;12.70;58.00
70068;DHT22;57425;51.616;6.680;2023-05-18T08:16:46;12.70;58.00
70068;DHT22;57425;51.616;6.680;2023-05-18T08:19:12;12.70;58.00
70068;DHT22;57425;51.616;6.680;2023-05-18T08:21:38;12.80;58.10
70068;DHT22;57425;51.616;6.680;2023-05-18T08:24:06;12.80;58.00
70068;DHT22;57425;51.616;6.680;2023-05-18T08:26:32;12.80;58.10
70068;DHT22;57425;51.616;6.680;2023-05-18T08:28:57;12.80;58.60
70068;DHT22;57425;51.616;6.680;2023-05-18T08:31:23;12.80;58.10
70068;DHT22;57425;51.616;6.680;2023-05-18T08:33:49;12.90;57.90
70068;DHT22;57425;51.616;6.680;2023-05-18T08:36:16;12.90;57.60
70068;DHT22;57425;51.616;6.680;2023-05-18T08:38:42;12.90;57.70
70068;DHT22;57425;51.616;6.680;2023-05-18T08:41:31;12.90;57.80
70068;DHT22;57425;51.616;6.680;2023-05-18T08:44:01;13.00;57.90
70068;DHT22;57425;51.616;6.680;2023-05-18T08:46:34;13.00;57.70
70068;DHT22;57425;51.616;6.680;2023-05-18T08:49:04;13.00;57.70
70068;DHT22;57425;51.616;6.680;2023-05-18T08:51:34;13.00;57.50
70068;DHT22;57425;51.616;6.680;2023-05-18T08:54:00;13.10;57.30
70068;DHT22;57425;51.616;6.680;2023-05-18T08:56:30;13.10;57.50
70068;DHT22;57425;51.616;6.680;2023-05-18T08:58:58;13.10;57.50
70068;DHT22;57425;51.616;6.680;2023-05-18T09:01:24;13.10;57.50
70068;DHT22;57425;51.616;6.680;2023-05-18T09:03:54;13.10;57.80
70068;DHT22;57425;51.616;6.680;2023-05-18T09:06:22;13.20;57.80
70068;DHT22;57425;51.616;6.680;2023-05-18T09:08:51;13.20;57.70
70068;DHT22;57425;51.616;6.680;2023-05-18T09:11:17;13.20;57.70
70068;DHT22;57425;51.616;6.680;2023-05-18T09:13:43;13.20;57.70
70068;DHT22;57425;51.616;6.680;2023-05-18T09:16:09;13.30;57.40
70068;DHT22;57425;51.616;6.680;2023-05-18T09:18:34;13.30;57.70
70068;DHT22;57425;51.616;6.680;2023-05-18T09:21:00;13.30;57.80
70068;DHT22;57425;51.616;6.680;2023-05-18T09:23:26;13.30;57.90
70068;DHT22;57425;51.616;6.680;2023-05-18T09:25:52;13.30;57.90
70068;DHT22;57425;51.616;6.680;2023-05-18T09:31:06;13.40;57.80
70068;DHT22;57425;51.616;6.680;2023-05-18T09:33:34;13.40;57.90
70068;DHT22;57425;51.616;6.680;2023-05-18T09:36:01;13.40;57.80
70068;DHT22;57425;51.616;6.680;2023-05-18T09:38:28;13.40;57.80
70068;DHT22;57425;51.616;6.680;2023-05-18T09:40:53;13.50;57.70
70068;DHT22;57425;51.616;6.680;2023-05-18T09:43:19;13.50;57.80
70068;DHT22;57425;51.616;6.680;2023-05-18T09:45:48;13.50;57.80
70068;DHT22;57425;51.616;6.680;2023-05-18T09:48:15;13.70;58.00
70068;DHT22;57425;51.616;6.680;2023-05-18T09:50:44;13.50;57.80
70068;DHT22;57425;51.616;6.680;2023-05-18T09:53:11;13.70;57.50
70068;DHT22;57425;51.616;6.680;2023-05-18T09:55:45;13.60;57.30
70068;DHT22;57425;51.616;6.680;2023-05-18T09:58:11;13.60;57.50
70068;DHT22;57425;51.616;6.680;2023-05-18T10:00:41;13.60;57.80
70068;DHT22;57425;51.616;6.680;2023-05-18T10:03:16;13.60;57.50
70068;DHT22;57425;51.616;6.680;2023-05-18T10:05:42;13.60;58.10
70068;DHT22;57425;51.616;6.680;2023-05-18T10:08:08;13.60;58.20
70068;DHT22;57425;51.616;6.680;2023-05-18T10:10:37;13.70;58.30
70068;DHT22;57425;51.616;6.680;2023-05-18T10:13:04;13.70;58.40
70068;DHT22;57425;51.616;6.680;2023-05-18T10:15:30;13.70;58.20
70068;DHT22;57425;51.616;6.680;2023-05-18T10:17:58;13.70;58.20
70068;DHT22;57425;51.616;6.680;2023-05-18T10:20:27;13.80;58.10
70068;DHT22;57425;51.616;6.680;2023-05-18T10:22:54;13.80;58.20
70068;DHT22;57425;51.616;6.680;2023-05-18T10:25:22;13.80;58.40
70068;DHT22;57425;51.616;6.680;2023-05-18T10:27:50;13.40;77.40
70068;DHT22;57425;51.616;6.680;2023-05-18T10:30:16;13.90;69.80
70068;DHT22;57425;51.616;6.680;2023-05-18T10:32:45;13.90;65.90
70068;DHT22;57425;51.616;6.680;2023-05-18T10:35:11;14.10;63.60
70068;DHT22;57425;51.616;6.680;2023-05-18T10:37:42;14.10;62.90
70068;DHT22;57425;51.616;6.680;2023-05-18T10:40:09;14.20;62.40
70068;DHT22;57425;51.616;6.680;2023-05-18T10:42:36;14.00;57.60
70068;DHT22;57425;51.616;6.680;2023-05-18T10:45:02;14.00;57.60
70068;DHT22;57425;51.616;6.680;2023-05-18T10:47:32;14.00;57.40
70068;DHT22;57425;51.616;6.680;2023-05-18T10:50:00;14.00;57.60
70068;DHT22;57425;51.616;6.680;2023-05-18T10:52:30;14.10;58.00
70068;DHT22;57425;51.616;6.680;2023-05-18T10:54:59;14.10;57.80
70068;DHT22;57425;51.616;6.680;2023-05-18T10:57:28;14.10;57.90
70068;DHT22;57425;51.616;6.680;2023-05-18T10:59:56;14.10;58.10
70068;DHT22;57425;51.616;6.680;2023-05-18T11:02:23;14.20;58.10
70068;DHT22;57425;51.616;6.680;2023-05-18T11:04:49;14.20;57.50
70068;DHT22;57425;51.616;6.680;2023-05-18T11:07:15;14.20;57.30
70068;DHT22;57425;51.616;6.680;2023-05-18T11:09:42;14.20;57.10
70068;DHT22;57425;51.616;6.680;2023-05-18T11:12:12;14.30;57.40
70068;DHT22;57425;51.616;6.680;2023-05-18T11:14:52;14.30;57.00
70068;DHT22;57425;51.616;6.680;2023-05-18T11:17:23;14.30;56.60
70068;DHT22;57425;51.616;6.680;2023-05-18T11:22:50;14.40;56.80
70068;DHT22;57425;51.616;6.680;2023-05-18T11:28:09;14.40;57.30
70068;DHT22;57425;51.616;6.680;2023-05-18T11:33:21;14.40;57.70
70068;DHT22;57425;51.616;6.680;2023-05-18T11:36:10;14.50;57.50
70068;DHT22;57425;51.616;6.680;2023-05-18T11:39:02;14.50;57.00
70068;DHT22;57425;51.616;6.680;2023-05-18T11:44:14;14.50;56.50
70068;DHT22;57425;51.616;6.680;2023-05-18T11:47:01;14.60;56.80
70068;DHT22;57425;51.616;6.680;2023-05-18T11:49:33;14.60;57.20
70068;DHT22;57425;51.616;6.680;2023-05-18T11:52:21;14.60;57.50
70068;DHT22;57425;51.616;6.680;2023-05-18T11:54:54;14.60;57.00
70068;DHT22;57425;51.616;6.680;2023-05-18T11:59:59;14.70;56.80
70068;DHT22;57425;51.616;6.680;2023-05-18T12:02:34;14.70;57.30
70068;DHT22;57425;51.616;6.680;2023-05-18T12:05:01;14.70;56.80
70068;DHT22;57425;51.616;6.680;2023-05-18T12:07:28;14.70;57.10
70068;DHT22;57425;51.616;6.680;2023-05-18T12:10:11;14.70;57.70
70068;DHT22;57425;51.616;6.680;2023-05-18T12:12:39;14.80;57.50
70068;DHT22;57425;51.616;6.680;2023-05-18T12:15:07;14.80;57.80
70068;DHT22;57425;51.616;6.680;2023-05-18T12:17:46;14.80;57.50
70068;DHT22;57425;51.616;6.680;2023-05-18T12:20:22;14.90;56.90
70068;DHT22;57425;51.616;6.680;2023-05-18T12:22:51;14.90;57.10
70068;DHT22;57425;51.616;6.680;2023-05-18T12:25:19;14.90;56.90
70068;DHT22;57425;51.616;6.680;2023-05-18T12:27:46;14.90;57.10
70068;DHT22;57425;51.616;6.680;2023-05-18T12:35:13;15.00;56.50
70068;DHT22;57425;51.616;6.680;2023-05-18T12:37:43;15.00;56.90
70068;DHT22;57425;51.616;6.680;2023-05-18T12:40:10;15.00;56.70
70068;DHT22;57425;51.616;6.680;2023-05-18T12:42:35;15.00;56.80
70068;DHT22;57425;51.616;6.680;2023-05-18T12:45:02;15.00;56.80
70068;DHT22;57425;51.616;6.680;2023-05-18T12:47:31;15.10;56.70
70068;DHT22;57425;51.616;6.680;2023-05-18T12:50:00;15.10;56.40
70068;DHT22;57425;51.616;6.680;2023-05-18T12:52:27;15.10;56.30
70068;DHT22;57425;51.616;6.680;2023-05-18T12:54:56;15.10;56.80
70068;DHT22;57425;51.616;6.680;2023-05-18T12:57:26;15.20;56.60
70068;DHT22;57425;51.616;6.680;2023-05-18T12:59:53;15.20;55.90
70068;DHT22;57425;51.616;6.680;2023-05-18T13:02:33;15.20;55.60
70068;DHT22;57425;51.616;6.680;2023-05-18T13:05:07;15.30;56.10
70068;DHT22;57425;51.616;6.680;2023-05-18T13:07:41;15.40;56.10
70068;DHT22;57425;51.616;6.680;2023-05-18T13:10:08;15.30;56.10
70068;DHT22;57425;51.616;6.680;2023-05-18T13:12:43;15.30;56.40
70068;DHT22;57425;51.616;6.680;2023-05-18T13:17:46;15.30;55.90
70068;DHT22;57425;51.616;6.680;2023-05-18T13:20:12;15.30;55.20
70068;DHT22;57425;51.616;6.680;2023-05-18T13:22:43;15.30;56.10
70068;DHT22;57425;51.616;6.680;2023-05-18T13:25:09;15.30;56.60
70068;DHT22;57425;51.616;6.680;2023-05-18T13:27:35;15.40;56.60
70068;DHT22;57425;51.616;6.680;2023-05-18T13:30:01;15.40;56.70
70068;DHT22;57425;51.616;6.680;2023-05-18T13:32:27;15.40;56.70
70068;DHT22;57425;51.616;6.680;2023-05-18T13:37:19;15.50;55.70
70068;DHT22;57425;51.616;6.680;2023-05-18T13:39:44;15.50;56.10
70068;DHT22;57425;51.616;6.680;2023-05-18T13:42:10;15.50;55.90
70068;DHT22;57425;51.616;6.680;2023-05-18T13:44:36;15.60;56.10
70068;DHT22;57425;51.616;6.680;2023-05-18T13:47:02;15.60;56.00
70068;DHT22;57425;51.616;6.680;2023-05-18T13:49:28;15.60;55.90
70068;DHT22;57425;51.616;6.680;2023-05-18T13:51:53;15.60;55.90
70068;DHT22;57425;51.616;6.680;2023-05-18T13:54:19;15.60;56.20
70068;DHT22;57425;51.616;6.680;2023-05-18T13:56:46;15.60;56.10
70068;DHT22;57425;51.616;6.680;2023-05-18T13:59:12;15.70;55.80
70068;DHT22;57425;51.616;6.680;2023-05-18T14:01:39;15.70;55.50
70068;DHT22;57425;51.616;6.680;2023-05-18T14:04:06;15.70;56.10
70068;DHT22;57425;51.616;6.680;2023-05-18T14:06:35;15.70;55.40
70068;DHT22;57425;51.616;6.680;2023-05-18T14:09:01;15.80;55.70
70068;DHT22;57425;51.616;6.680;2023-05-18T14:11:27;15.80;55.70
70068;DHT22;57425;51.616;6.680;2023-05-18T14:13:53;15.80;55.20
70068;DHT22;57425;51.616;6.680;2023-05-18T14:16:18;15.80;55.60
70068;DHT22;57425;51.616;6.680;2023-05-18T14:18:44;15.80;55.60
70068;DHT22;57425;51.616;6.680;2023-05-18T14:21:09;15.90;55.20
70068;DHT22;57425;51.616;6.680;2023-05-18T14:23:35;15.90;55.70
70068;DHT22;57425;51.616;6.680;2023-05-18T14:26:00;15.90;56.00
70068;DHT22;57425;51.616;6.680;2023-05-18T14:28:26;15.90;55.50
70068;DHT22;57425;51.616;6.680;2023-05-18T14:30:52;16.00;56.00
70068;DHT22;57425;51.616;6.680;2023-05-18T14:33:17;16.00;55.90
70068;DHT22;57425;51.616;6.680;2023-05-18T14:35:43;16.00;55.60
70068;DHT22;57425;51.616;6.680;2023-05-18T14:38:08;16.00;56.00
70068;DHT22;57425;51.616;6.680;2023-05-18T14:40:34;16.00;55.10
70068;DHT22;57425;51.616;6.680;2023-05-18T14:42:59;16.10;55.90
70068;DHT22;57425;51.616;6.680;2023-05-18T14:45:25;16.10;55.90
70068;DHT22;57425;51.616;6.680;2023-05-18T14:47:51;16.10;55.00
70068;DHT22;57425;51.616;6.680;2023-05-18T14:50:16;16.10;54.70
70068;DHT22;57425;51.616;6.680;2023-05-18T14:52:42;16.20;55.10
70068;DHT22;57425;51.616;6.680;2023-05-18T14:55:08;16.20;55.30
70068;DHT22;57425;51.616;6.680;2023-05-18T14:57:34;16.20;55.30
70068;DHT22;57425;51.616;6.680;2023-05-18T14:59:59;16.20;55.20
70068;DHT22;57425;51.616;6.680;2023-05-18T15:02:25;16.20;55.00
70068;DHT22;57425;51.616;6.680;2023-05-18T15:04:50;16.20;54.40
70068;DHT22;57425;51.616;6.680;2023-05-18T15:07:16;16.30;54.50
70068;DHT22;57425;51.616;6.680;2023-05-18T15:09:42;16.20;54.80
70068;DHT22;57425;51.616;6.680;2023-05-18T15:12:07;16.20;54.60
70068;DHT22;57425;51.616;6.680;2023-05-18T15:14:33;16.10;54.70
70068;DHT22;57425;51.616;6.680;2023-05-18T15:16:58;16.20;55.10
70068;DHT22;57425;51.616;6.680;2023-05-18T15:19:24;16.20;55.30
70068;DHT22;57425;51.616;6.680;2023-05-18T15:21:50;16.20;55.50
70068;DHT22;57425;51.616;6.680;2023-05-18T15:24:16;16.20;55.70
70068;DHT22;57425;51.616;6.680;2023-05-18T15:26:41;16.20;55.30
70068;DHT22;57425;51.616;6.680;2023-05-18T15:29:07;16.20;54.90
70068;DHT22;57425;51.616;6.680;2023-05-18T15:31:33;16.20;55.50
70068;DHT22;57425;51.616;6.680;2023-05-18T15:34:01;16.30;55.20
70068;DHT22;57425;51.616;6.680;2023-05-18T15:36:26;16.30;55.30
70068;DHT22;57425;51.616;6.680;2023-05-18T15:38:53;16.30;55.30
70068;DHT22;57425;51.616;6.680;2023-05-18T15:41:19;16.30;55.60
70068;DHT22;57425;51.616;6.680;2023-05-18T15:43:46;16.30;55.50
70068;DHT22;57425;51.616;6.680;2023-05-18T15:46:11;16.40;55.50
70068;DHT22;57425;51.616;6.680;2023-05-18T15:48:37;16.40;55.50
70068;DHT22;57425;51.616;6.680;2023-05-18T15:51:03;16.40;55.60
70068;DHT22;57425;51.616;6.680;2023-05-18T15:53:28;16.40;55.60
70068;DHT22;57425;51.616;6.680;2023-05-18T15:55:54;16.40;55.70
70068;DHT22;57425;51.616;6.680;2023-05-18T15:58:20;16.40;56.10
70068;DHT22;57425;51.616;6.680;2023-05-18T16:00:46;16.40;55.70
70068;DHT22;57425;51.616;6.680;2023-05-18T16:03:12;16.40;55.50
70068;DHT22;57425;51.616;6.680;2023-05-18T16:05:38;16.50;55.20
70068;DHT22;57425;51.616;6.680;2023-05-18T16:08:04;16.50;55.00
70068;DHT22;57425;51.616;6.680;2023-05-18T16:10:30;16.50;54.80